Time;durP1;ratioP1;P1;durP2;ratioP2;P2;SDS_P1;SDS_P2;PMS_P1;PMS_P2;Temp;Humidity;BMP_temperature;BMP_pressure;BME280_temperature;BME280_humidity;BME280_pressure;Samples;Min_cycle;Max_cycle;Signal;HPM_P1;HPM_P2
2022/01/22 00:00:14;;;;;;;30.08;6.38;;;6.00;99.90;;;;;;5054746;28;20045;-72
2022/01/22 00:02:40;;;;;;;28.65;6.50;;;6.10;99.90;;;;;;5053973;28;20032;-72
2022/01/22 00:05:08;;;;;;;31.75;5.80;;;6.10;99.90;;;;;;5055202;28;20025;-72
2022/01/22 00:07:34;;;;;;;31.55;6.50;;;6.10;99.90;;;;;;5054972;28;20028;-72
2022/01/22 00:10:04;;;;;;;30.73;6.72;;;6.10;99.90;;;;;;5054274;28;20033;-72
2022/01/22 00:15:06;;;;;;;43.45;6.45;;;6.10;99.90;;;;;;5054799;28;20120;-72
2022/01/22 00:17:31;;;;;;;28.27;5.53;;;6.00;99.90;;;;;;5054247;28;20095;-72
2022/01/22 00:19:57;;;;;;;32.42;7.50;;;6.00;99.90;;;;;;5054627;28;20467;-72
2022/01/22 00:22:27;;;;;;;29.15;7.13;;;6.00;99.90;;;;;;5054032;28;20126;-72
2022/01/22 00:24:58;;;;;;;32.95;7.03;;;6.10;99.90;;;;;;5054526;28;20062;-72
2022/01/22 00:27:25;;;;;;;35.45;7.53;;;6.00;99.90;;;;;;5053876;28;20024;-72
2022/01/22 00:29:50;;;;;;;34.20;5.82;;;6.10;99.90;;;;;;5053884;28;20025;-72
2022/01/22 00:32:16;;;;;;;33.47;6.25;;;6.10;99.90;;;;;;5053844;28;20052;-72
2022/01/22 00:34:42;;;;;;;40.33;6.97;;;6.00;99.90;;;;;;5053853;28;20051;-72
2022/01/22 00:37:08;;;;;;;33.47;5.90;;;6.00;99.90;;;;;;5053941;28;20029;-72
2022/01/22 00:39:34;;;;;;;40.72;6.82;;;6.00;99.90;;;;;;5054048;28;20503;-72
2022/01/22 00:42:01;;;;;;;39.22;7.35;;;6.00;99.90;;;;;;5053732;28;20017;-72
2022/01/22 00:44:27;;;;;;;35.33;7.15;;;6.00;99.90;;;;;;5053682;28;20071;-72
2022/01/22 00:46:53;;;;;;;39.08;8.18;;;6.00;99.90;;;;;;5053897;28;20107;-72
2022/01/22 00:49:18;;;;;;;33.05;7.80;;;6.10;99.90;;;;;;5052306;28;20473;-72
2022/01/22 00:51:44;;;;;;;52.50;7.20;;;6.10;99.90;;;;;;5053633;28;20116;-72
2022/01/22 00:54:10;;;;;;;39.97;7.95;;;6.00;99.90;;;;;;5053533;28;20032;-72
2022/01/22 00:56:35;;;;;;;32.17;8.57;;;6.00;99.90;;;;;;5053422;28;20035;-72
2022/01/22 00:59:01;;;;;;;34.33;7.68;;;6.00;99.90;;;;;;5053949;28;20450;-72
2022/01/22 01:01:28;;;;;;;39.30;7.93;;;5.90;99.90;;;;;;5053430;28;20032;-72
2022/01/22 01:03:56;;;;;;;50.47;7.90;;;6.00;99.90;;;;;;5053445;28;20021;-72
2022/01/22 01:06:22;;;;;;;38.42;8.57;;;5.90;99.90;;;;;;5053664;28;20021;-72
2022/01/22 01:08:48;;;;;;;52.40;7.47;;;6.00;99.90;;;;;;5053234;28;20021;-72
2022/01/22 01:11:15;;;;;;;43.40;7.95;;;6.00;99.90;;;;;;5053565;28;20017;-72
2022/01/22 01:13:45;;;;;;;36.58;6.53;;;6.00;99.90;;;;;;5053134;28;20024;-72
2022/01/22 01:16:42;;;;;;;37.97;7.65;;;6.10;99.90;;;;;;5053024;28;20030;-72
2022/01/22 01:35:20;;;;;;;32.13;6.43;;;6.10;99.90;;;;;;5053373;28;20025;-72
2022/01/22 01:37:46;;;;;;;41.30;8.15;;;6.00;99.90;;;;;;5052913;28;20449;-72
2022/01/22 01:40:15;;;;;;;48.80;8.35;;;6.00;99.90;;;;;;5053029;28;20052;-72
2022/01/22 01:42:48;;;;;;;44.63;8.68;;;6.00;99.90;;;;;;5053009;28;20021;-72
2022/01/22 01:45:14;;;;;;;;;;;6.10;99.90;;;;;;5053736;28;20087;-72
2022/01/22 01:47:43;;;;;;;30.73;6.35;;;6.10;99.90;;;;;;5053670;28;19904;-71
2022/01/22 01:50:09;;;;;;;34.45;6.43;;;6.10;99.90;;;;;;5053194;28;20104;-71
2022/01/22 01:52:45;;;;;;;29.20;6.32;;;6.10;99.90;;;;;;5052907;28;20029;-71
2022/01/22 01:55:15;;;;;;;43.05;7.53;;;6.10;99.90;;;;;;5053198;28;20096;-71
2022/01/22 01:57:43;;;;;;;34.53;6.38;;;6.10;99.90;;;;;;5052990;28;20481;-71
2022/01/22 02:00:17;;;;;;;38.25;6.30;;;6.00;99.90;;;;;;5052894;28;20100;-71
2022/01/22 02:02:44;;;;;;;44.67;7.38;;;6.10;99.90;;;;;;5053118;28;20025;-71
2022/01/22 02:05:11;;;;;;;35.97;7.20;;;6.00;99.90;;;;;;5052765;28;20075;-71
2022/01/22 02:07:39;;;;;;;38.83;6.60;;;6.00;99.90;;;;;;5052687;28;20113;-71
2022/01/22 02:10:08;;;;;;;29.52;6.65;;;6.00;99.90;;;;;;5052868;28;20024;-71
2022/01/22 02:25:59;;;;;;;27.63;5.72;;;5.90;99.90;;;;;;5056309;28;20068;-71
2022/01/22 02:28:24;;;;;;;40.08;6.20;;;6.00;99.90;;;;;;5056484;28;20056;-71
2022/01/22 02:30:57;;;;;;;44.70;5.78;;;6.00;99.90;;;;;;5056483;28;20021;-71
2022/01/22 02:35:56;;;;;;;42.60;7.15;;;5.90;99.90;;;;;;5056409;28;20511;-71
2022/01/22 02:38:32;;;;;;;25.33;5.60;;;5.90;99.90;;;;;;5056242;28;20040;-71
2022/01/22 02:40:58;;;;;;;34.80;5.63;;;6.00;99.90;;;;;;5056058;28;20020;-71
2022/01/22 02:43:24;;;;;;;36.80;6.53;;;6.00;99.90;;;;;;5055952;28;20036;-71
2022/01/22 02:45:51;;;;;;;34.70;5.25;;;5.90;99.90;;;;;;5055927;28;20045;-71
2022/01/22 02:48:17;;;;;;;29.15;5.35;;;5.90;99.90;;;;;;5056083;28;20473;-71
2022/01/22 02:50:42;;;;;;;25.15;5.47;;;5.90;99.90;;;;;;5055801;28;20029;-71
2022/01/22 02:53:12;;;;;;;23.45;5.82;;;5.80;99.90;;;;;;5055788;28;20366;-71
2022/01/22 02:55:39;;;;;;;41.95;5.97;;;5.90;99.90;;;;;;5055687;28;20384;-71
2022/01/22 02:58:05;;;;;;;23.60;5.35;;;5.90;99.90;;;;;;5056191;28;20063;-71
2022/01/22 03:00:31;;;;;;;33.97;5.32;;;5.80;99.90;;;;;;5055890;28;20044;-71
2022/01/22 03:02:57;;;;;;;29.77;5.57;;;5.80;99.90;;;;;;5055930;28;20087;-71
2022/01/22 03:05:23;;;;;;;34.08;5.43;;;5.80;99.90;;;;;;5055537;28;20025;-71
2022/01/22 03:07:52;;;;;;;26.75;6.13;;;5.80;99.90;;;;;;5055437;28;20060;-71
2022/01/22 03:10:22;;;;;;;29.55;5.13;;;5.80;99.90;;;;;;5054301;28;20025;-71
2022/01/22 03:15:59;;;;;;;27.85;4.70;;;5.70;99.90;;;;;;5054398;28;20443;-71
2022/01/22 03:21:28;;;;;;;11.32;3.22;;;5.80;99.90;;;;;;5055565;28;20030;-71
2022/01/22 03:29:32;;;;;;;12.68;3.17;;;6.00;99.90;;;;;;5055019;28;20319;-71
2022/01/22 03:31:58;;;;;;;9.98;2.85;;;5.90;99.90;;;;;;5055375;28;20029;-71
2022/01/22 03:34:23;;;;;;;8.98;2.90;;;6.00;99.90;;;;;;5054960;28;20024;-71
2022/01/22 03:36:49;;;;;;;15.65;3.35;;;6.00;99.90;;;;;;5055144;28;20071;-71
2022/01/22 03:39:15;;;;;;;28.33;4.80;;;5.90;99.90;;;;;;5054856;28;20052;-71
2022/01/22 03:41:40;;;;;;;33.17;5.03;;;6.00;99.90;;;;;;5054800;28;20025;-71
2022/01/22 03:44:08;;;;;;;41.72;6.78;;;5.90;99.90;;;;;;5054998;28;20481;-71
2022/01/22 03:46:36;;;;;;;43.13;6.38;;;6.00;99.90;;;;;;5055016;28;20388;-71
2022/01/22 03:49:02;;;;;;;44.90;8.60;;;6.00;99.90;;;;;;5053381;28;20025;-71
2022/01/22 03:51:28;;;;;;;50.28;7.93;;;6.00;99.90;;;;;;5055081;28;20029;-71
2022/01/22 03:53:54;;;;;;;39.38;7.40;;;6.00;99.90;;;;;;5054601;28;20021;-71
2022/01/22 03:56:20;;;;;;;50.63;10.32;;;6.00;99.90;;;;;;5054527;28;20539;-71
2022/01/22 03:58:46;;;;;;;56.15;8.30;;;6.00;99.90;;;;;;5054707;28;20017;-71
2022/01/22 04:04:00;;;;;;;53.20;7.30;;;5.90;99.90;;;;;;5054512;28;20389;-71
2022/01/22 04:08:54;;;;;;;38.13;7.10;;;5.90;99.90;;;;;;5054549;28;20033;-71
2022/01/22 04:11:20;;;;;;;52.35;6.60;;;5.90;99.90;;;;;;5054538;28;20104;-71
2022/01/22 04:13:49;;;;;;;49.17;8.57;;;5.80;99.90;;;;;;5054194;28;20100;-71
2022/01/22 04:16:15;;;;;;;46.08;6.57;;;5.90;99.90;;;;;;5054052;28;20485;-71
2022/01/22 04:26:56;;;;;;;38.80;6.20;;;5.90;99.90;;;;;;5054074;28;20334;-71
2022/01/22 04:29:24;;;;;;;34.05;5.68;;;5.90;99.90;;;;;;5053859;28;20024;-71
2022/01/22 04:31:50;;;;;;;31.52;5.68;;;5.90;99.90;;;;;;5053924;28;20025;-71
2022/01/22 04:34:16;;;;;;;35.65;6.20;;;5.90;99.90;;;;;;5053884;28;20018;-71
2022/01/22 04:36:42;;;;;;;55.97;7.50;;;5.90;99.90;;;;;;5053745;28;20025;-71
2022/01/22 04:39:08;;;;;;;46.80;7.22;;;5.80;99.90;;;;;;5053786;28;20056;-71
2022/01/22 04:41:33;;;;;;;43.03;7.82;;;5.80;99.90;;;;;;5053826;28;20028;-71
2022/01/22 04:44:02;;;;;;;49.38;6.82;;;5.80;99.90;;;;;;5053965;28;20017;-71
2022/01/22 04:46:52;;;;;;;38.75;7.00;;;5.80;99.90;;;;;;5053431;28;20488;-71
2022/01/22 04:52:34;;;;;;;39.63;6.50;;;5.70;99.90;;;;;;5053579;28;20021;-71
2022/01/22 04:55:03;;;;;;;;;;;5.80;99.90;;;;;;5053916;28;20104;-71
2022/01/22 04:57:34;;;;;;;35.22;6.53;;;5.70;99.90;;;;;;5053782;28;19909;-71
2022/01/22 05:00:00;;;;;;;24.23;6.15;;;5.80;99.90;;;;;;5053445;28;20025;-71
2022/01/22 05:02:26;;;;;;;29.42;5.97;;;5.80;99.90;;;;;;5053656;28;20018;-71
2022/01/22 05:04:52;;;;;;;26.02;6.35;;;5.70;99.90;;;;;;5053956;28;20025;-71
2022/01/22 05:07:17;;;;;;;29.35;6.75;;;5.70;99.90;;;;;;5053559;28;20047;-71
2022/01/22 05:09:43;;;;;;;34.53;6.32;;;5.80;99.90;;;;;;5053313;28;20031;-71
2022/01/22 05:12:09;;;;;;;22.08;6.32;;;5.80;99.90;;;;;;5053607;28;20051;-71
2022/01/22 05:14:35;;;;;;;26.58;7.35;;;5.70;99.90;;;;;;5053530;28;20025;-71
2022/01/22 05:17:03;;;;;;;17.65;5.30;;;5.80;99.90;;;;;;5053157;28;20507;-71
2022/01/22 05:24:42;;;;;;;26.63;4.65;;;5.80;99.90;;;;;;5053799;28;20028;-71
2022/01/22 05:27:24;;;;;;;31.52;4.57;;;5.90;99.90;;;;;;5053064;28;20029;-71
2022/01/22 05:30:13;;;;;;;34.85;4.43;;;5.90;99.90;;;;;;5053429;28;20028;-71
2022/01/22 05:38:12;;;;;;;44.25;4.90;;;5.90;99.90;;;;;;5053264;28;20027;-71
2022/01/22 05:40:38;;;;;;;36.83;5.28;;;5.90;99.90;;;;;;5053030;28;20478;-71
2022/01/22 05:43:04;;;;;;;48.85;4.55;;;5.90;99.90;;;;;;5052987;28;20066;-71
2022/01/22 05:45:30;;;;;;;26.45;4.05;;;5.90;99.90;;;;;;5052961;28;20104;-71
2022/01/22 05:47:56;;;;;;;32.13;4.22;;;5.90;99.90;;;;;;5051633;28;20052;-71
2022/01/22 05:50:32;;;;;;;34.72;5.00;;;5.90;99.90;;;;;;5052937;28;20025;-71
2022/01/22 05:53:04;;;;;;;61.72;5.20;;;5.90;99.90;;;;;;5053480;28;20048;-71
2022/01/22 05:59:35;;;;;;;48.60;4.60;;;5.90;99.90;;;;;;5053040;28;20484;-71
2022/01/22 06:00:59;;;;;;;;;;;5.90;99.90;;;;;;5056971;28;20035;-71
2022/01/22 06:03:24;;;;;;;55.45;3.97;;;5.90;99.90;;;;;;5056690;28;20003;-71
2022/01/22 06:05:50;;;;;;;28.90;4.22;;;5.90;99.90;;;;;;5057225;28;20017;-71
2022/01/22 06:08:17;;;;;;;41.22;3.72;;;5.90;99.90;;;;;;5056541;28;20370;-71
2022/01/22 06:10:46;;;;;;;46.50;5.22;;;5.80;99.90;;;;;;5057246;28;20415;-71
2022/01/22 06:13:17;;;;;;;39.30;6.10;;;5.90;99.90;;;;;;5056574;28;20052;-71
2022/01/22 06:15:43;;;;;;;42.85;3.72;;;5.90;99.90;;;;;;5056968;28;20083;-71
2022/01/22 06:18:09;;;;;;;41.53;5.97;;;5.80;99.90;;;;;;5056468;28;20029;-71
2022/01/22 06:20:34;;;;;;;30.20;4.18;;;5.90;99.90;;;;;;5056529;28;20028;-71
2022/01/22 06:23:01;;;;;;;35.90;3.88;;;5.80;99.90;;;;;;5056368;28;20032;-71
2022/01/22 06:25:27;;;;;;;52.55;4.57;;;5.80;99.90;;;;;;5056318;28;20017;-71
2022/01/22 06:27:53;;;;;;;29.20;4.15;;;5.80;99.90;;;;;;5056578;28;20044;-71
2022/01/22 06:30:20;;;;;;;52.63;5.03;;;5.80;99.90;;;;;;5056216;28;20068;-71
2022/01/22 06:32:45;;;;;;;39.55;3.90;;;5.80;99.90;;;;;;5056165;28;20025;-71
2022/01/22 06:35:12;;;;;;;20.85;4.18;;;5.70;99.90;;;;;;5056172;28;20032;-71
2022/01/22 06:37:37;;;;;;;40.70;4.90;;;5.70;99.90;;;;;;5055912;28;20029;-71
2022/01/22 06:42:33;;;;;;;52.28;6.10;;;5.70;99.90;;;;;;5056292;28;20124;-71
2022/01/22 06:45:00;;;;;;;37.40;4.95;;;5.70;99.90;;;;;;5055825;28;20481;-71
2022/01/22 06:47:27;;;;;;;47.05;5.60;;;5.70;99.90;;;;;;5056365;28;20381;-71
2022/01/22 06:49:53;;;;;;;49.55;5.75;;;5.80;99.90;;;;;;5055841;28;20037;-71
2022/01/22 06:52:19;;;;;;;33.30;4.28;;;5.80;99.90;;;;;;5055855;28;20036;-71
2022/01/22 06:54:45;;;;;;;31.08;5.13;;;5.80;99.90;;;;;;5055723;28;20029;-71
2022/01/22 06:57:11;;;;;;;33.92;4.88;;;5.80;99.90;;;;;;5055574;28;20024;-71
2022/01/22 06:59:36;;;;;;;25.95;4.50;;;5.80;99.90;;;;;;5055875;28;20017;-71
2022/01/22 07:02:03;;;;;;;24.75;3.47;;;5.80;99.90;;;;;;5055659;28;20064;-71
2022/01/22 07:04:31;;;;;;;25.15;4.07;;;5.80;99.90;;;;;;5055615;28;20023;-71
2022/01/22 07:06:57;;;;;;;23.65;5.50;;;5.90;99.90;;;;;;5055865;28;20500;-71
2022/01/22 07:09:23;;;;;;;12.82;2.80;;;5.80;99.90;;;;;;5055395;28;20104;-71
2022/01/22 07:11:49;;;;;;;15.48;4.00;;;5.90;99.90;;;;;;5055096;28;20048;-71
2022/01/22 07:14:15;;;;;;;15.93;4.40;;;5.90;99.90;;;;;;5055424;28;20021;-71
2022/01/22 07:16:41;;;;;;;15.25;3.35;;;5.90;99.90;;;;;;5055069;28;20149;-71
2022/01/22 07:19:07;;;;;;;12.63;4.55;;;5.90;99.90;;;;;;5055254;28;20112;-71
2022/01/22 07:21:32;;;;;;;17.50;3.40;;;5.80;99.90;;;;;;5055712;28;20564;-71
2022/01/22 07:26:30;;;;;;;13.75;3.45;;;5.90;99.90;;;;;;5055222;28;20070;-71
2022/01/22 07:28:56;;;;;;;17.15;3.88;;;5.80;99.90;;;;;;5055044;28;20022;-71
2022/01/22 07:31:25;;;;;;;10.45;3.88;;;5.80;99.90;;;;;;5055087;28;20031;-71
2022/01/22 07:33:50;;;;;;;12.25;3.50;;;5.90;99.90;;;;;;5055057;28;20481;-71
2022/01/22 07:36:16;;;;;;;21.05;5.00;;;5.80;99.90;;;;;;5055270;28;20029;-71
2022/01/22 07:38:42;;;;;;;15.57;3.70;;;5.80;99.90;;;;;;5054836;28;20048;-71
2022/01/22 07:41:08;;;;;;;13.00;4.53;;;5.90;99.90;;;;;;5054966;28;20469;-71
2022/01/22 07:43:38;;;;;;;16.05;4.22;;;5.80;99.90;;;;;;5055426;28;20025;-71
2022/01/22 07:46:05;;;;;;;17.08;3.55;;;5.80;99.90;;;;;;5054772;28;20400;-71
2022/01/22 07:48:31;;;;;;;16.27;4.00;;;5.90;99.90;;;;;;5110291;22;20083;-67
2022/01/22 07:50:57;;;;;;;10.68;3.00;;;5.80;99.90;;;;;;5054742;28;20396;-67
2022/01/22 07:53:24;;;;;;;13.02;3.78;;;5.90;99.90;;;;;;5054694;28;20075;-67
2022/01/22 07:55:50;;;;;;;16.13;4.43;;;5.80;99.90;;;;;;5054665;28;20040;-67
2022/01/22 07:58:16;;;;;;;9.00;2.53;;;5.80;99.90;;;;;;5054464;28;20029;-67
2022/01/22 08:00:41;;;;;;;15.32;3.67;;;5.90;99.90;;;;;;5054538;28;20031;-67
2022/01/22 08:03:08;;;;;;;16.27;4.22;;;5.80;99.90;;;;;;5054498;28;20021;-67
2022/01/22 08:05:35;;;;;;;18.10;3.50;;;5.90;99.90;;;;;;5054768;28;20017;-68
2022/01/22 08:08:00;;;;;;;11.25;3.45;;;5.90;99.90;;;;;;5054870;28;20404;-68
2022/01/22 08:10:26;;;;;;;24.08;5.13;;;5.90;99.90;;;;;;5054325;28;20035;-68
2022/01/22 08:12:52;;;;;;;10.50;3.83;;;5.90;99.90;;;;;;5054326;28;20032;-67
2022/01/22 08:15:18;;;;;;;16.27;3.50;;;5.90;99.90;;;;;;5054263;28;20024;-67
2022/01/22 08:17:44;;;;;;;9.38;2.70;;;6.00;99.90;;;;;;5054365;28;20051;-67
2022/01/22 08:20:16;;;;;;;15.57;4.03;;;6.00;99.90;;;;;;5054475;28;20021;-67
2022/01/22 08:22:45;;;;;;;16.85;3.53;;;5.90;99.90;;;;;;5053726;28;20097;-67
2022/01/22 08:25:11;;;;;;;11.07;2.92;;;6.00;99.90;;;;;;5054118;28;20036;-67
2022/01/22 08:28:52;;;;;;;6.28;2.95;;;6.00;99.90;;;;;;5054263;28;20037;-67
2022/01/22 08:30:35;;;;;;;11.18;2.00;;;6.00;99.90;;;;;;5053783;28;20090;-67
2022/01/22 08:38:16;;;;;;;7.85;1.90;;;6.10;99.90;;;;;;5053732;28;20114;-68
2022/01/22 08:40:42;;;;;;;5.57;1.98;;;6.10;99.90;;;;;;5053820;28;20057;-68
2022/01/22 08:43:07;;;;;;;5.55;1.85;;;6.10;99.90;;;;;;5053769;28;20013;-67
2022/01/22 08:45:33;;;;;;;6.05;1.55;;;6.10;99.90;;;;;;5053711;28;20473;-67
2022/01/22 08:47:59;;;;;;;11.85;2.03;;;6.10;99.90;;;;;;5053726;28;20032;-67
2022/01/22 08:50:24;;;;;;;13.43;2.22;;;6.10;99.90;;;;;;5053926;28;20074;-67
2022/01/22 08:52:50;;;;;;;9.57;1.42;;;6.10;99.90;;;;;;5053848;28;20029;-67
2022/01/22 08:55:16;;;;;;;5.57;1.65;;;6.10;99.90;;;;;;5053905;28;20446;-68
2022/01/22 08:57:41;;;;;;;5.40;1.70;;;6.10;99.90;;;;;;5053435;28;20021;-68
2022/01/22 09:00:08;;;;;;;6.10;1.63;;;6.10;99.90;;;;;;5053571;28;20024;-68
2022/01/22 09:02:35;;;;;;;7.38;2.00;;;6.10;99.90;;;;;;5053634;28;20461;-68
2022/01/22 09:05:01;;;;;;;9.95;2.20;;;6.10;99.90;;;;;;5054056;28;20017;-68
2022/01/22 09:07:26;;;;;;;5.80;2.55;;;6.10;99.90;;;;;;5053395;28;20500;-68
2022/01/22 09:09:52;;;;;;;11.45;2.22;;;6.10;99.90;;;;;;5053369;28;20053;-68
2022/01/22 09:12:19;;;;;;;20.13;3.42;;;6.20;99.90;;;;;;5053357;28;20033;-68
2022/01/22 09:14:45;;;;;;;11.52;2.45;;;6.20;99.90;;;;;;5053337;28;20023;-67
2022/01/22 09:17:11;;;;;;;10.27;2.05;;;6.30;99.90;;;;;;5053512;28;20025;-67
2022/01/22 09:19:37;;;;;;;10.45;2.20;;;6.30;99.90;;;;;;5053206;28;20022;-67
2022/01/22 09:22:07;;;;;;;19.38;2.78;;;6.30;99.90;;;;;;5053816;28;20028;-67
2022/01/22 09:24:33;;;;;;;8.07;2.35;;;6.20;99.90;;;;;;5053547;28;20036;-68
2022/01/22 09:27:03;;;;;;;6.38;1.45;;;6.30;99.90;;;;;;5053503;28;20037;-68
2022/01/22 09:29:29;;;;;;;13.95;2.25;;;6.30;99.90;;;;;;5053363;28;20029;-68
2022/01/22 09:31:54;;;;;;;8.43;1.95;;;6.40;99.90;;;;;;5053193;28;20029;-67
2022/01/22 09:34:20;;;;;;;12.00;2.45;;;6.30;99.90;;;;;;5056371;28;20362;-67
2022/01/22 09:36:46;;;;;;;7.75;2.20;;;6.30;99.90;;;;;;5057153;28;20108;-67
2022/01/22 09:39:11;;;;;;;7.88;2.70;;;6.30;99.90;;;;;;5057231;28;20032;-68
2022/01/22 09:41:37;;;;;;;13.73;3.78;;;6.30;99.90;;;;;;5057190;28;20036;-68
2022/01/22 09:44:03;;;;;;;11.73;3.28;;;6.30;99.90;;;;;;5057169;28;20104;-68
2022/01/22 09:46:29;;;;;;;11.27;3.30;;;6.40;99.90;;;;;;5057027;28;20021;-68
2022/01/22 09:48:56;;;;;;;5.38;3.08;;;6.40;99.90;;;;;;5057022;28;20033;-68
2022/01/22 09:51:22;;;;;;;6.05;2.30;;;6.40;99.90;;;;;;5057022;28;20017;-68
2022/01/22 09:53:48;;;;;;;12.02;2.20;;;6.40;99.90;;;;;;5056939;28;20167;-68
2022/01/22 09:56:19;;;;;;;11.85;2.67;;;6.40;99.90;;;;;;5057212;28;20112;-68
2022/01/22 09:58:45;;;;;;;13.80;3.97;;;6.40;99.90;;;;;;5056756;28;20126;-68
2022/01/22 10:01:27;;;;;;;16.33;3.70;;;6.40;99.90;;;;;;5056792;28;20159;-68
2022/01/22 10:03:55;;;;;;;17.33;4.90;;;6.30;99.90;;;;;;5057043;28;20062;-67
2022/01/22 10:06:26;;;;;;;24.13;4.15;;;6.40;99.90;;;;;;5057560;28;20096;-67
2022/01/22 10:09:04;;;;;;;30.63;3.45;;;6.50;99.90;;;;;;5056923;28;20021;-67
2022/01/22 10:11:29;;;;;;;17.98;3.53;;;6.40;99.90;;;;;;5056633;28;20025;-67
2022/01/22 10:13:59;;;;;;;33.78;4.65;;;6.40;99.90;;;;;;5056558;28;20041;-67
2022/01/22 10:16:27;;;;;;;12.48;3.95;;;6.40;99.90;;;;;;5056555;28;20396;-68
2022/01/22 10:19:11;;;;;;;27.63;4.97;;;6.50;99.90;;;;;;5056336;28;20086;-68
2022/01/22 10:21:37;;;;;;;26.85;2.78;;;6.50;99.90;;;;;;5056615;28;20100;-68
2022/01/22 10:24:28;;;;;;;12.75;2.80;;;6.40;99.90;;;;;;5056392;28;20029;-68
2022/01/22 10:27:23;;;;;;;22.83;2.40;;;6.50;99.90;;;;;;5056637;28;20021;-68
2022/01/22 10:29:55;;;;;;;20.08;2.97;;;6.50;99.90;;;;;;5056302;28;20025;-68
2022/01/22 10:32:35;;;;;;;15.30;2.90;;;6.50;99.90;;;;;;5056567;28;20021;-68
2022/01/22 10:35:10;;;;;;;16.73;2.70;;;6.50;99.90;;;;;;5056512;28;20021;-68
2022/01/22 10:37:36;;;;;;;17.02;1.98;;;6.50;99.90;;;;;;5056321;28;20039;-68
2022/01/22 10:40:23;;;;;;;7.53;1.42;;;6.50;99.90;;;;;;5056077;28;20029;-68
2022/01/22 10:42:50;;;;;;;10.20;2.22;;;6.50;99.90;;;;;;5056046;28;20477;-68
2022/01/22 10:45:25;;;;;;;12.00;1.65;;;6.50;99.90;;;;;;5055571;28;20361;-68
2022/01/22 10:48:10;;;;;;;7.95;2.20;;;6.50;99.90;;;;;;5056070;28;20029;-67
2022/01/22 10:50:36;;;;;;;9.85;1.42;;;6.50;99.90;;;;;;5055729;28;20041;-67
2022/01/22 10:53:02;;;;;;;12.27;3.03;;;6.50;99.90;;;;;;5055874;28;20029;-67
2022/01/22 10:55:27;;;;;;;16.52;2.90;;;6.50;99.90;;;;;;5055837;28;20024;-68
2022/01/22 10:58:09;;;;;;;16.95;1.88;;;6.40;99.90;;;;;;5055585;28;20473;-68
2022/01/22 11:00:38;;;;;;;8.50;2.17;;;6.50;99.90;;;;;;5055759;28;20029;-67
2022/01/22 11:03:25;;;;;;;8.70;1.27;;;6.50;99.90;;;;;;5055672;28;20024;-68
2022/01/22 11:05:51;;;;;;;8.98;1.80;;;6.50;99.90;;;;;;5055935;28;20020;-68
2022/01/22 11:08:16;;;;;;;12.55;1.77;;;6.50;99.90;;;;;;5055493;28;20025;-68
2022/01/22 11:10:45;;;;;;;12.10;2.58;;;6.50;99.90;;;;;;5055425;28;20031;-68
2022/01/22 11:13:11;;;;;;;16.08;1.73;;;6.40;99.90;;;;;;5055515;28;20025;-68
2022/01/22 11:15:38;;;;;;;12.88;1.88;;;6.50;99.90;;;;;;5055882;28;20496;-67
2022/01/22 11:18:07;;;;;;;18.08;2.25;;;6.50;99.90;;;;;;5055808;28;20028;-67
2022/01/22 11:20:33;;;;;;;10.68;1.17;;;6.60;99.90;;;;;;5055337;28;20086;-67
2022/01/22 11:22:59;;;;;;;6.70;1.50;;;6.70;99.90;;;;;;5055299;28;20025;-67
2022/01/22 11:25:26;;;;;;;16.90;2.28;;;6.80;99.90;;;;;;5055542;28;20029;-67
2022/01/22 11:27:52;;;;;;;6.82;1.10;;;6.80;99.90;;;;;;5055449;28;20033;-67
2022/01/22 11:30:19;;;;;;;8.90;1.25;;;6.90;99.90;;;;;;5055168;28;20065;-67
2022/01/22 11:32:54;;;;;;;15.13;2.55;;;7.00;99.90;;;;;;5055424;28;20043;-67
2022/01/22 11:35:25;;;;;;;19.52;2.45;;;7.00;99.90;;;;;;5055343;28;20029;-67
2022/01/22 11:37:56;;;;;;;11.40;1.85;;;7.00;99.90;;;;;;5055204;28;20052;-67
2022/01/22 11:40:27;;;;;;;12.30;1.95;;;7.00;99.90;;;;;;5055320;28;20017;-67
2022/01/22 11:43:01;;;;;;;10.68;1.90;;;7.00;99.90;;;;;;5054930;28;20060;-67
2022/01/22 11:45:30;;;;;;;10.73;2.40;;;6.90;99.90;;;;;;5055152;28;20096;-68
2022/01/22 11:48:27;;;;;;;11.40;1.90;;;6.90;99.90;;;;;;5055083;28;20102;-67
2022/01/22 11:50:56;;;;;;;10.13;2.17;;;6.90;99.90;;;;;;5054931;28;20489;-68
2022/01/22 11:53:29;;;;;;;10.13;2.20;;;6.90;99.90;;;;;;5055022;28;20082;-68
2022/01/22 11:56:26;;;;;;;10.45;1.83;;;6.90;99.90;;;;;;5054820;28;20104;-68
2022/01/22 11:59:12;;;;;;;13.75;2.00;;;7.00;99.90;;;;;;5054536;28;20025;-68
2022/01/22 12:01:41;;;;;;;7.80;1.20;;;7.00;99.90;;;;;;5037415;28;20033;-68
2022/01/22 12:04:14;;;;;;;12.77;1.48;;;7.00;99.90;;;;;;5055606;28;20412;-68
2022/01/22 12:07:00;;;;;;;6.57;1.45;;;6.90;99.90;;;;;;5054639;28;20017;-68
2022/01/22 12:09:26;;;;;;;22.83;3.15;;;6.90;99.90;;;;;;5054252;28;20028;-67
2022/01/22 12:14:54;;;;;;;24.50;2.72;;;6.90;99.90;;;;;;5054817;28;20032;-68
2022/01/22 12:17:40;;;;;;;16.73;1.92;;;6.90;99.90;;;;;;5054433;28;20028;-67
2022/01/22 12:20:19;;;;;;;10.38;1.40;;;6.90;99.90;;;;;;5054080;28;20029;-67
2022/01/22 12:22:44;;;;;;;6.00;1.25;;;6.90;99.90;;;;;;5054702;28;20074;-67
2022/01/22 12:25:15;;;;;;;6.05;1.08;;;6.90;99.90;;;;;;5054116;28;20021;-67
2022/01/22 12:27:52;;;;;;;3.15;1.13;;;6.90;99.90;;;;;;5054282;28;20032;-67
2022/01/22 12:30:39;;;;;;;3.05;0.77;;;6.80;99.90;;;;;;5054359;28;20078;-67
2022/01/22 12:33:09;;;;;;;6.05;1.25;;;6.90;99.90;;;;;;5054321;28;20017;-67
2022/01/22 12:35:38;;;;;;;6.47;1.08;;;6.80;99.90;;;;;;5053950;28;20025;-69
2022/01/22 12:38:46;;;;;;;17.52;1.38;;;6.90;99.90;;;;;;5053984;28;20028;-67
2022/01/22 12:44:34;;;;;;;9.05;1.50;;;6.80;99.90;;;;;;5054127;28;20492;-68
2022/01/22 12:47:11;;;;;;;9.65;0.80;;;6.80;99.90;;;;;;5053806;28;20029;-68
2022/01/22 12:49:37;;;;;;;8.30;1.10;;;6.80;99.90;;;;;;5053575;28;20137;-67
2022/01/22 12:52:13;;;;;;;5.28;1.25;;;6.70;99.90;;;;;;5053654;28;20503;-67
2022/01/22 12:54:47;;;;;;;5.93;1.35;;;6.80;99.90;;;;;;5053861;28;20378;-68
2022/01/22 12:57:16;;;;;;;5.00;1.10;;;6.80;99.90;;;;;;5053520;28;20366;-67
2022/01/22 12:59:48;;;;;;;8.30;1.10;;;6.80;99.90;;;;;;5053438;28;20020;-67
2022/01/22 13:02:14;;;;;;;14.52;1.85;;;6.80;99.90;;;;;;5053544;28;20424;-67
2022/01/22 13:04:39;;;;;;;8.85;1.80;;;6.80;99.90;;;;;;5053509;28;20021;-68
2022/01/22 13:07:11;;;;;;;11.60;2.33;;;6.80;99.90;;;;;;5035594;28;20075;-67
2022/01/22 13:09:47;;;;;;;11.10;1.52;;;6.80;99.90;;;;;;5053045;28;20041;-67
2022/01/22 13:12:14;;;;;;;20.17;2.50;;;6.80;99.90;;;;;;5053524;28;20021;-67
2022/01/22 13:14:39;;;;;;;12.48;1.70;;;6.80;99.90;;;;;;5053635;28;20029;-67
2022/01/22 13:17:12;;;;;;;11.52;2.35;;;6.80;99.90;;;;;;5053246;28;20389;-67
2022/01/22 13:19:39;;;;;;;;;;;6.70;99.90;;;;;;5053890;28;20124;-67
2022/01/22 13:22:05;;;;;;;14.07;2.00;;;6.70;99.90;;;;;;5053366;28;20422;-67
2022/01/22 13:24:31;;;;;;;16.20;1.48;;;6.70;99.90;;;;;;5053271;28;20025;-67
2022/01/22 13:27:14;;;;;;;4.30;1.27;;;6.70;99.90;;;;;;5053816;28;20375;-68
2022/01/22 13:29:43;;;;;;;24.48;2.05;;;6.70;99.90;;;;;;5053423;28;20032;-67
2022/01/22 13:32:55;;;;;;;8.55;1.90;;;6.70;99.90;;;;;;5053217;28;20064;-67
2022/01/22 13:40:45;;;;;;;13.05;2.63;;;6.80;99.90;;;;;;5030263;28;20087;-67
2022/01/22 13:49:00;;;;;;;11.43;1.70;;;6.80;99.90;;;;;;5083473;22;20049;-70
2022/01/22 13:51:27;;;;;;;3.88;1.30;;;6.80;99.90;;;;;;5033161;28;20384;-70
2022/01/22 13:53:53;;;;;;;10.70;1.20;;;6.80;99.90;;;;;;5033366;28;20405;-70
2022/01/22 13:56:21;;;;;;;5.00;0.98;;;6.70;99.90;;;;;;5033301;28;20025;-70
2022/01/22 13:58:47;;;;;;;21.83;1.60;;;6.70;99.90;;;;;;5033003;28;20503;-70
2022/01/22 14:01:39;;;;;;;13.18;2.45;;;6.70;99.90;;;;;;5032990;28;20026;-70
2022/01/22 14:04:10;;;;;;;9.20;1.95;;;6.70;99.90;;;;;;5032974;28;20072;-70
2022/01/22 14:06:35;;;;;;;8.35;1.70;;;6.70;99.90;;;;;;5033128;28;20095;-70
2022/01/22 14:09:18;;;;;;;18.35;2.15;;;6.70;99.90;;;;;;5032823;28;20065;-70
2022/01/22 14:12:33;;;;;;;17.25;1.83;;;6.70;99.90;;;;;;5033171;28;20040;-70
2022/01/22 14:15:01;;;;;;;17.30;2.35;;;6.70;99.90;;;;;;4952987;29;20031;-70
2022/01/22 14:17:36;;;;;;;11.63;2.30;;;6.70;99.90;;;;;;4952729;29;20035;-70
2022/01/22 14:20:11;;;;;;;17.48;1.85;;;6.70;99.90;;;;;;5003566;28;20037;-70
2022/01/22 14:22:58;;;;;;;14.60;1.70;;;6.60;99.90;;;;;;5037089;28;20025;-69
2022/01/22 14:25:25;;;;;;;19.52;2.00;;;6.60;99.90;;;;;;5036437;28;20481;-70
2022/01/22 14:28:06;;;;;;;9.43;1.60;;;6.60;99.90;;;;;;5036363;28;20618;-70
2022/01/22 14:30:44;;;;;;;20.95;2.50;;;6.60;99.90;;;;;;5036661;28;20030;-70
2022/01/22 14:33:12;;;;;;;24.77;3.63;;;6.50;99.90;;;;;;5036312;28;20104;-70
2022/01/22 14:35:39;;;;;;;18.38;3.45;;;6.50;99.90;;;;;;5037123;28;20374;-70
2022/01/22 14:38:46;;;;;;;29.00;5.20;;;6.50;99.90;;;;;;5018324;28;20481;-70
2022/01/22 14:46:54;;;;;;;24.23;2.28;;;6.40;99.90;;;;;;5036722;28;20024;-69
2022/01/22 14:49:28;;;;;;;31.05;5.00;;;6.40;99.90;;;;;;5035952;28;20512;-68
2022/01/22 14:51:54;;;;;;;14.95;3.40;;;6.50;99.90;;;;;;5036260;28;20025;-68